createdAt,value
2023-02-14T00:00:31.991Z,4.90
2023-02-14T00:01:32.004Z,4.30
2023-02-14T00:02:31.996Z,5.00
2023-02-14T00:03:31.933Z,4.60
2023-02-14T00:04:32.899Z,4.60
2023-02-14T00:05:31.921Z,4.70
2023-02-14T00:06:32.228Z,5.20
2023-02-14T00:07:31.889Z,4.60
2023-02-14T00:08:31.949Z,4.70
2023-02-14T00:09:31.883Z,5.10
2023-02-14T00:10:31.900Z,5.80
2023-02-14T00:11:31.879Z,4.90
2023-02-14T00:12:31.849Z,5.50
2023-02-14T00:13:32.140Z,4.90
2023-02-14T00:14:31.868Z,5.20
2023-02-14T00:15:31.816Z,4.40
2023-02-14T00:16:31.871Z,4.80
2023-02-14T00:17:31.789Z,5.00
2023-02-14T00:18:31.803Z,4.80
2023-02-14T00:19:31.863Z,4.50
2023-02-14T00:20:32.089Z,4.60
2023-02-14T00:21:31.765Z,4.20
2023-02-14T00:22:31.769Z,4.30
2023-02-14T00:23:31.737Z,5.40
2023-02-14T00:24:31.773Z,5.20
2023-02-14T00:25:31.710Z,4.80
2023-02-14T00:26:31.792Z,4.40
2023-02-14T00:27:31.982Z,4.10
2023-02-14T00:28:31.700Z,5.90
2023-02-14T00:29:31.667Z,5.10
2023-02-14T00:30:31.826Z,5.00
2023-02-14T00:31:31.772Z,5.50
2023-02-14T00:32:31.685Z,4.80
2023-02-14T00:33:31.624Z,5.40
2023-02-14T00:34:31.906Z,4.50
2023-02-14T00:35:31.616Z,5.10
2023-02-14T00:36:31.596Z,4.70
2023-02-14T00:37:31.590Z,4.60
2023-02-14T00:38:31.608Z,3.80
2023-02-14T00:39:31.590Z,4.20
2023-02-14T00:40:31.547Z,4.60
2023-02-14T00:41:31.836Z,5.40
2023-02-14T00:42:31.546Z,5.20
2023-02-14T00:43:31.562Z,4.60
2023-02-14T00:44:31.547Z,4.70
2023-02-14T00:45:31.537Z,5.30
2023-02-14T00:46:31.503Z,5.90
2023-02-14T00:47:31.485Z,5.40
2023-02-14T00:48:31.765Z,6.70
2023-02-14T00:49:31.512Z,4.70
2023-02-14T00:50:31.487Z,4.50
2023-02-14T00:51:31.446Z,5.40
2023-02-14T00:52:31.513Z,5.50
2023-02-14T00:53:31.428Z,4.80
2023-02-14T00:54:31.424Z,4.80
2023-02-14T00:55:31.713Z,5.40
2023-02-14T00:56:31.465Z,5.30
2023-02-14T00:57:31.380Z,4.70
2023-02-14T00:58:31.379Z,5.10
2023-02-14T00:59:31.384Z,5.90
2023-02-14T01:00:31.394Z,4.60
2023-02-14T01:01:31.354Z,5.30
2023-02-14T01:02:31.741Z,5.20
2023-02-14T01:03:31.329Z,6.60
2023-02-14T01:04:31.324Z,5.20
2023-02-14T01:05:31.292Z,4.80
2023-02-14T01:06:31.304Z,6.00
2023-02-14T01:07:31.300Z,6.00
2023-02-14T01:08:31.314Z,5.70
2023-02-14T01:09:31.543Z,5.20
2023-02-14T01:10:31.256Z,5.60
2023-02-14T01:11:31.250Z,5.20
2023-02-14T01:12:31.228Z,5.50
2023-02-14T01:13:31.220Z,5.00
2023-02-14T01:14:31.254Z,4.90
2023-02-14T01:15:31.215Z,5.60
2023-02-14T01:16:31.512Z,4.20
2023-02-14T01:17:31.182Z,5.60
2023-02-14T01:18:31.168Z,4.80
2023-02-14T01:19:31.162Z,4.80
2023-02-14T01:20:31.184Z,5.30
2023-02-14T01:21:31.147Z,5.20
2023-02-14T01:22:31.142Z,4.90
2023-02-14T01:23:31.422Z,5.50
2023-02-14T01:24:31.161Z,5.40
2023-02-14T01:25:31.103Z,4.70
2023-02-14T01:26:31.130Z,5.10
2023-02-14T01:27:31.075Z,5.10
2023-02-14T01:28:31.077Z,4.70
2023-02-14T01:29:31.087Z,5.70
2023-02-14T01:30:31.467Z,4.60
2023-02-14T01:31:31.367Z,5.60
2023-02-14T01:32:31.070Z,5.40
2023-02-14T01:33:31.021Z,5.60
2023-02-14T01:34:31.040Z,5.30
2023-02-14T01:35:30.995Z,4.80
2023-02-14T01:36:31.003Z,4.50
2023-02-14T01:37:31.265Z,5.30
2023-02-14T01:38:31.021Z,5.90
2023-02-14T01:39:30.961Z,6.00
2023-02-14T01:40:30.953Z,5.30
2023-02-14T01:41:30.959Z,5.30
2023-02-14T01:42:30.937Z,5.60
2023-02-14T01:43:30.919Z,4.80
2023-02-14T01:44:31.236Z,4.70
2023-02-14T01:45:30.954Z,5.00
2023-02-14T01:46:30.891Z,5.40
2023-02-14T01:47:30.894Z,5.20
2023-02-14T01:48:30.873Z,4.40
2023-02-14T01:49:30.866Z,5.10
2023-02-14T01:50:30.881Z,5.20
2023-02-14T01:51:31.151Z,5.30
2023-02-14T01:52:30.826Z,5.10
2023-02-14T01:53:30.819Z,4.80
2023-02-14T01:54:30.841Z,5.10
2023-02-14T01:55:30.812Z,4.90
2023-02-14T01:56:31.117Z,6.20
2023-02-14T01:57:30.788Z,5.30
2023-02-14T01:58:31.038Z,6.40
2023-02-14T01:59:30.768Z,5.00
2023-02-14T02:00:30.758Z,4.40
2023-02-14T02:01:30.829Z,5.30
2023-02-14T02:02:30.815Z,5.30
2023-02-14T02:03:30.716Z,5.80
2023-02-14T02:04:30.727Z,4.80
2023-02-14T02:05:30.972Z,4.90
2023-02-14T02:06:30.689Z,5.40
2023-02-14T02:07:30.685Z,5.10
2023-02-14T02:08:30.707Z,4.40
2023-02-14T02:09:30.661Z,4.70
2023-02-14T02:10:30.642Z,5.30
2023-02-14T02:11:30.643Z,4.80
2023-02-14T02:12:31.153Z,5.20
2023-02-14T02:13:30.617Z,5.80
2023-02-14T02:14:30.645Z,4.80
2023-02-14T02:15:30.593Z,5.90
2023-02-14T02:16:30.642Z,6.30
2023-02-14T02:17:30.587Z,4.70
2023-02-14T02:18:30.570Z,4.50
2023-02-14T02:19:30.845Z,4.70
2023-02-14T02:21:45.873Z,6.00
2023-02-14T02:22:46.838Z,5.80
2023-02-14T02:23:46.864Z,5.20
2023-02-14T02:24:46.816Z,5.40
2023-02-14T02:25:46.816Z,5.90
2023-02-14T02:26:46.829Z,5.70
2023-02-14T02:27:47.089Z,5.50
2023-02-14T02:28:46.789Z,5.30
2023-02-14T02:29:46.927Z,4.80
2023-02-14T02:30:46.915Z,5.20
2023-02-14T02:31:46.956Z,5.10
2023-02-14T02:32:46.770Z,4.90
2023-02-14T02:33:46.727Z,4.90
2023-02-14T02:34:46.727Z,4.50
2023-02-14T02:35:46.713Z,5.00
2023-02-14T02:36:46.705Z,4.10
2023-02-14T02:37:46.732Z,4.80
2023-02-14T02:38:46.715Z,5.80
2023-02-14T02:39:46.950Z,4.80
2023-02-14T02:40:46.749Z,4.80
2023-02-14T02:41:46.649Z,5.00
2023-02-14T02:42:46.655Z,5.40
2023-02-14T02:43:46.630Z,4.50
2023-02-14T02:44:46.662Z,4.30
2023-02-14T02:45:46.616Z,4.90
2023-02-14T02:46:46.890Z,4.90
2023-02-14T02:47:46.607Z,5.90
2023-02-14T02:48:46.593Z,5.60
2023-02-14T02:49:46.577Z,4.20
2023-02-14T02:50:46.580Z,4.60
2023-02-14T02:51:46.565Z,5.20
2023-02-14T02:52:46.528Z,5.00
2023-02-14T02:53:46.819Z,5.20
2023-02-14T02:54:46.512Z,5.70
2023-02-14T02:55:46.524Z,5.70
2023-02-14T02:56:47.118Z,5.00
2023-02-14T02:57:46.495Z,5.10
2023-02-14T02:58:46.491Z,4.50
2023-02-14T02:59:46.468Z,5.10
2023-02-14T03:00:46.734Z,5.60
2023-02-14T03:01:46.562Z,5.60
2023-02-14T03:02:46.457Z,5.00
2023-02-14T03:03:46.438Z,4.20
2023-02-14T03:04:46.486Z,5.20
2023-02-14T03:05:46.413Z,5.70
2023-02-14T03:06:46.405Z,4.00
2023-02-14T03:07:46.686Z,5.00
2023-02-14T03:08:46.409Z,5.20
2023-02-14T03:09:46.358Z,4.70
2023-02-14T03:10:46.355Z,4.90
2023-02-14T03:11:46.341Z,4.20
2023-02-14T03:12:46.347Z,4.90
2023-02-14T03:13:46.329Z,5.20
2023-02-14T03:14:46.644Z,5.00
2023-02-14T03:15:46.340Z,4.70
2023-02-14T03:16:46.288Z,4.60
2023-02-14T03:17:46.284Z,4.40
2023-02-14T03:18:46.278Z,4.80
2023-02-14T03:19:46.282Z,3.70
2023-02-14T03:20:46.285Z,3.70
2023-02-14T03:21:46.527Z,4.30
2023-02-14T03:22:46.236Z,3.60
2023-02-14T03:23:46.225Z,4.60
2023-02-14T03:24:46.226Z,4.70
2023-02-14T03:25:46.205Z,4.60
2023-02-14T03:26:46.229Z,5.20
2023-02-14T03:27:46.189Z,5.00
2023-02-14T03:28:46.452Z,4.60
2023-02-14T03:29:46.160Z,5.20
2023-02-14T03:30:46.274Z,3.90
2023-02-14T03:31:46.295Z,4.50
2023-02-14T03:32:46.167Z,4.60
2023-02-14T03:33:46.127Z,4.40
2023-02-14T03:34:46.124Z,4.50
2023-02-14T03:35:46.380Z,4.30
2023-02-14T03:36:46.112Z,4.30
2023-02-14T03:37:46.080Z,3.70
2023-02-14T03:38:46.118Z,3.70
2023-02-14T03:39:46.061Z,4.20
2023-02-14T03:40:46.042Z,4.50
2023-02-14T03:41:46.045Z,4.30
2023-02-14T03:42:46.310Z,3.80
2023-02-14T03:43:46.016Z,4.40
2023-02-14T03:44:46.055Z,4.10
2023-02-14T03:45:46.001Z,4.30
2023-02-14T03:46:46.067Z,3.90
2023-02-14T03:47:45.980Z,4.00
2023-02-14T03:48:45.968Z,3.80
2023-02-14T03:49:46.246Z,4.30
2023-02-14T03:50:45.977Z,5.30
2023-02-14T03:51:45.972Z,5.00
2023-02-14T03:52:45.923Z,4.60
2023-02-14T03:53:45.936Z,3.20
2023-02-14T03:54:45.905Z,4.30
2023-02-14T03:55:45.900Z,3.70
2023-02-14T03:56:46.215Z,4.60
2023-02-14T03:57:45.886Z,4.90
2023-02-14T03:58:45.863Z,4.10
2023-02-14T03:59:45.864Z,4.00
2023-02-14T04:00:45.880Z,4.70
2023-02-14T04:01:45.889Z,3.60
2023-02-14T04:02:46.148Z,4.10
2023-02-14T04:03:46.202Z,4.70
2023-02-14T04:04:45.799Z,3.80
2023-02-14T04:05:45.814Z,4.00
2023-02-14T04:06:45.790Z,4.50
2023-02-14T04:07:45.787Z,4.00
2023-02-14T04:08:45.792Z,4.40
2023-02-14T04:09:45.770Z,4.10
2023-02-14T04:10:46.056Z,4.00
2023-02-14T04:11:45.749Z,4.50
2023-02-14T04:12:45.730Z,4.20
2023-02-14T04:13:45.735Z,4.30
2023-02-14T04:14:45.730Z,3.80
2023-02-14T04:15:45.897Z,4.50
2023-02-14T04:16:45.686Z,4.00
2023-02-14T04:17:45.956Z,4.60
2023-02-14T04:18:45.660Z,4.20
2023-02-14T04:19:45.651Z,3.80
2023-02-14T04:20:45.672Z,4.20
2023-02-14T04:21:45.646Z,4.00
2023-02-14T04:22:45.621Z,4.70
2023-02-14T04:23:45.620Z,4.30
2023-02-14T04:24:45.919Z,3.90
2023-02-14T04:25:45.610Z,4.60
2023-02-14T04:26:45.614Z,4.10
2023-02-14T04:27:45.586Z,4.70
2023-02-14T04:28:45.571Z,4.60
2023-02-14T04:29:45.555Z,3.80
2023-02-14T04:30:45.548Z,3.90
2023-02-14T04:31:45.921Z,4.40
2023-02-14T04:32:45.553Z,3.90
2023-02-14T04:33:45.513Z,4.10
2023-02-14T04:34:45.505Z,3.90
2023-02-14T04:35:45.503Z,3.70
2023-02-14T04:36:45.522Z,4.60
2023-02-14T04:37:45.498Z,4.40
2023-02-14T04:38:45.808Z,4.70
2023-02-14T04:39:45.474Z,3.70
2023-02-14T04:40:45.449Z,4.70
2023-02-14T04:41:45.441Z,3.90
2023-02-14T04:42:45.442Z,4.10
2023-02-14T04:43:45.414Z,4.20
2023-02-14T04:44:45.444Z,3.40
2023-02-14T04:45:45.678Z,3.10
2023-02-14T04:46:45.447Z,4.30
2023-02-14T04:47:45.375Z,3.50
2023-02-14T04:48:45.388Z,4.00
2023-02-14T04:49:45.383Z,4.50
2023-02-14T04:50:45.393Z,4.00
2023-02-14T04:51:45.331Z,3.60
2023-02-14T04:52:45.620Z,4.20
2023-02-14T04:53:45.324Z,3.10
2023-02-14T04:54:45.295Z,3.70
2023-02-14T04:55:45.297Z,3.20
2023-02-14T04:56:45.309Z,3.60
2023-02-14T04:57:45.275Z,4.50
2023-02-14T04:58:45.265Z,3.90
2023-02-14T04:59:45.530Z,3.40
2023-02-14T05:00:45.300Z,3.90
2023-02-14T05:01:45.280Z,4.60
2023-02-14T05:02:45.254Z,4.20
2023-02-14T05:03:45.215Z,3.50
2023-02-14T05:04:45.221Z,4.60
2023-02-14T05:05:45.192Z,3.40
2023-02-14T05:06:45.471Z,4.50
2023-02-14T05:07:45.221Z,3.90
2023-02-14T05:08:45.222Z,4.20
2023-02-14T05:09:45.161Z,3.20
2023-02-14T05:10:45.136Z,4.30
2023-02-14T05:11:45.160Z,4.10
2023-02-14T05:12:45.149Z,3.60
2023-02-14T05:13:45.404Z,3.70
2023-02-14T05:14:45.128Z,4.20
2023-02-14T05:15:45.166Z,4.20
2023-02-14T05:16:45.174Z,3.70
2023-02-14T05:17:45.073Z,3.70
2023-02-14T05:18:45.062Z,3.50
2023-02-14T05:19:45.052Z,4.40
2023-02-14T05:20:45.352Z,3.90
2023-02-14T05:21:45.038Z,4.70
2023-02-14T05:22:45.028Z,3.40
2023-02-14T05:23:45.018Z,3.70
2023-02-14T05:24:45.000Z,3.40
2023-02-14T05:25:45.026Z,3.90
2023-02-14T05:26:45.013Z,4.30
2023-02-14T05:27:44.969Z,4.20
2023-02-14T05:28:44.949Z,3.70
2023-02-14T05:29:44.960Z,3.70
2023-02-14T05:30:44.983Z,3.80
2023-02-14T05:31:45.026Z,4.00
2023-02-14T05:32:44.966Z,4.10
2023-02-14T05:33:45.211Z,4.10
2023-02-14T05:34:44.916Z,4.10
2023-02-14T05:35:44.886Z,4.30
2023-02-14T05:36:44.896Z,3.80
2023-02-14T05:37:44.863Z,4.00
2023-02-14T05:38:44.917Z,4.30
2023-02-14T05:39:44.857Z,3.70
2023-02-14T05:40:44.847Z,4.00
2023-02-14T05:41:44.849Z,3.80
2023-02-14T05:42:44.830Z,3.50
2023-02-14T05:43:44.818Z,4.30
2023-02-14T05:44:44.843Z,3.80
2023-02-14T05:45:45.149Z,3.50
2023-02-14T05:46:44.781Z,4.70
2023-02-14T05:47:44.765Z,3.70
2023-02-14T05:48:44.758Z,3.80
2023-02-14T05:49:44.754Z,3.80
2023-02-14T05:50:44.765Z,3.40
2023-02-14T05:51:44.731Z,4.10
2023-02-14T05:52:44.728Z,4.10
2023-02-14T05:53:44.707Z,3.60
2023-02-14T05:54:44.711Z,4.40
2023-02-14T05:55:44.703Z,3.80
2023-02-14T05:56:44.711Z,4.70
2023-02-14T05:57:44.971Z,3.50
2023-02-14T05:58:44.692Z,5.20
2023-02-14T05:59:44.664Z,3.70
2023-02-14T06:00:44.670Z,4.00
2023-02-14T06:01:44.686Z,4.00
2023-02-14T06:02:44.654Z,3.80
2023-02-14T06:03:44.608Z,4.60
2023-02-14T06:04:44.960Z,4.40
2023-02-14T06:05:44.590Z,3.50
2023-02-14T06:06:44.646Z,4.00
2023-02-14T06:07:44.585Z,4.60
2023-02-14T06:08:44.620Z,4.90
2023-02-14T06:09:44.556Z,4.30
2023-02-14T06:10:44.618Z,4.70
2023-02-14T06:11:44.816Z,3.90
2023-02-14T06:12:44.529Z,4.80
2023-02-14T06:13:44.532Z,4.10
2023-02-14T06:14:44.552Z,4.70
2023-02-14T06:15:44.513Z,4.10
2023-02-14T06:16:44.554Z,5.00
2023-02-14T06:17:44.487Z,5.60
2023-02-14T06:18:44.774Z,6.70
2023-02-14T06:19:44.462Z,5.20
2023-02-14T06:20:44.488Z,5.40
2023-02-14T06:21:44.435Z,5.00
2023-02-14T06:22:44.429Z,5.40
2023-02-14T06:23:44.419Z,4.90
2023-02-14T06:24:44.437Z,5.20
2023-02-14T06:25:44.689Z,5.50
2023-02-14T06:26:44.442Z,5.40
2023-02-14T06:27:44.390Z,5.50
2023-02-14T06:28:44.417Z,6.00
2023-02-14T06:29:44.347Z,5.30
2023-02-14T06:30:44.618Z,4.90
2023-02-14T06:31:44.467Z,5.20
2023-02-14T06:32:44.647Z,5.40
2023-02-14T06:33:44.308Z,5.10
2023-02-14T06:34:44.326Z,5.30
2023-02-14T06:35:44.308Z,6.20
2023-02-14T06:36:44.292Z,5.10
2023-02-14T06:37:44.276Z,5.70
2023-02-14T06:38:44.374Z,4.50
2023-02-14T06:39:44.557Z,4.80
2023-02-14T06:40:44.262Z,5.30
2023-02-14T06:41:44.248Z,5.30
2023-02-14T06:42:44.227Z,5.40
2023-02-14T06:43:44.218Z,4.70
2023-02-14T06:44:44.311Z,5.30
2023-02-14T06:45:44.320Z,5.10
2023-02-14T06:46:44.188Z,5.60
2023-02-14T06:47:44.176Z,4.40
2023-02-14T06:48:44.195Z,5.80
2023-02-14T06:49:44.175Z,4.30
2023-02-14T06:50:44.198Z,5.10
2023-02-14T06:51:44.134Z,5.10
2023-02-14T06:52:44.425Z,5.50
2023-02-14T06:53:44.136Z,4.50
2023-02-14T06:54:44.109Z,5.50
2023-02-14T06:55:44.154Z,4.30
2023-02-14T06:56:44.137Z,4.20
2023-02-14T06:57:44.174Z,4.10
2023-02-14T06:58:44.084Z,5.20
2023-02-14T06:59:44.343Z,4.70
2023-02-14T07:00:44.042Z,4.80
2023-02-14T07:01:44.083Z,5.10
2023-02-14T07:02:44.161Z,4.60
2023-02-14T07:03:44.030Z,5.60
2023-02-14T07:04:44.008Z,4.50
2023-02-14T07:05:43.998Z,4.20
2023-02-14T07:06:44.264Z,5.20
2023-02-14T07:07:43.976Z,3.90
2023-02-14T07:08:44.020Z,4.40
2023-02-14T07:09:43.972Z,4.60
2023-02-14T07:10:43.948Z,4.60
2023-02-14T07:11:43.938Z,3.30
2023-02-14T07:12:43.942Z,4.80
2023-02-14T07:13:44.201Z,4.90
2023-02-14T07:14:43.965Z,4.70
2023-02-14T07:15:43.946Z,4.00
2023-02-14T07:16:43.879Z,5.20
2023-02-14T07:17:43.895Z,5.00
2023-02-14T07:18:43.869Z,4.90
2023-02-14T07:19:43.883Z,4.10
2023-02-14T07:20:43.905Z,5.20
2023-02-14T07:21:43.885Z,4.50
2023-02-14T07:22:43.836Z,4.10
2023-02-14T07:23:43.816Z,4.30
2023-02-14T07:24:43.895Z,4.90
2023-02-14T07:25:43.827Z,4.30
2023-02-14T07:26:44.115Z,4.70
2023-02-14T07:27:43.782Z,5.50
2023-02-14T07:28:45.195Z,4.70
2023-02-14T07:29:43.789Z,4.40
2023-02-14T07:30:43.788Z,5.00
2023-02-14T07:31:43.859Z,5.10
2023-02-14T07:32:43.778Z,5.60
2023-02-14T07:33:43.739Z,4.90
2023-02-14T07:34:43.712Z,6.40
2023-02-14T07:35:43.689Z,5.00
2023-02-14T07:36:43.709Z,5.80
2023-02-14T07:37:43.678Z,5.10
2023-02-14T07:38:43.981Z,4.90
2023-02-14T07:39:43.656Z,6.00
2023-02-14T07:40:43.654Z,4.00
2023-02-14T07:41:43.630Z,4.80
2023-02-14T07:42:43.675Z,4.50
2023-02-14T07:43:43.627Z,5.70
2023-02-14T07:44:43.634Z,5.10
2023-02-14T07:45:43.598Z,4.30
2023-02-14T07:46:43.653Z,4.50
2023-02-14T07:47:43.572Z,4.40
2023-02-14T07:48:43.576Z,4.30
2023-02-14T07:49:43.546Z,4.70
2023-02-14T07:50:43.897Z,3.90
2023-02-14T07:51:43.535Z,4.00
2023-02-14T07:52:43.534Z,4.10
2023-02-14T07:53:43.543Z,4.00
2023-02-14T07:54:43.556Z,4.10
2023-02-14T07:55:43.498Z,4.20
2023-02-14T07:56:43.519Z,4.10
2023-02-14T07:57:43.775Z,4.00
2023-02-14T07:58:43.465Z,4.30
2023-02-14T07:59:43.442Z,4.20
2023-02-14T08:00:43.446Z,4.80
2023-02-14T08:01:43.480Z,4.20
2023-02-14T08:02:43.467Z,4.10
2023-02-14T08:03:43.420Z,4.40
2023-02-14T08:04:43.746Z,4.20
2023-02-14T08:05:43.384Z,5.10
2023-02-14T08:06:43.402Z,3.70
2023-02-14T08:07:43.383Z,4.10
2023-02-14T08:08:43.751Z,4.20
2023-02-14T08:09:43.337Z,5.10
2023-02-14T08:10:43.341Z,4.50
2023-02-14T08:11:43.613Z,5.20
2023-02-14T08:12:43.334Z,3.60
2023-02-14T08:13:43.299Z,5.20
2023-02-14T08:14:43.349Z,4.80
2023-02-14T08:15:43.322Z,5.00
2023-02-14T08:16:43.273Z,5.40
2023-02-14T08:17:43.256Z,4.70
2023-02-14T08:18:43.550Z,3.60
2023-02-14T08:19:43.229Z,4.10
2023-02-14T08:20:43.288Z,4.30
2023-02-14T08:21:43.213Z,3.70
2023-02-14T08:22:43.209Z,4.80
2023-02-14T08:23:43.189Z,3.50
2023-02-14T08:24:43.176Z,3.60
2023-02-14T08:25:43.468Z,3.90
2023-02-14T08:26:43.251Z,3.80
2023-02-14T08:27:43.169Z,3.70
2023-02-14T08:28:43.167Z,4.30
2023-02-14T08:29:43.144Z,4.00
2023-02-14T08:30:43.146Z,4.20
2023-02-14T08:31:43.164Z,4.00
2023-02-14T08:32:43.203Z,3.80
2023-02-14T08:33:43.128Z,3.60
2023-02-14T08:34:43.115Z,4.50
2023-02-14T08:35:43.101Z,3.80
2023-02-14T08:36:43.063Z,4.20
2023-02-14T08:37:43.069Z,3.40
2023-02-14T08:38:43.075Z,4.00
2023-02-14T08:39:43.043Z,4.50
2023-02-14T08:40:43.015Z,3.90
2023-02-14T08:41:43.013Z,4.10
2023-02-14T08:42:43.024Z,3.70
2023-02-14T08:43:42.992Z,4.20
2023-02-14T08:44:43.306Z,4.60
2023-02-14T08:45:42.992Z,4.50
2023-02-14T08:46:43.148Z,3.80
2023-02-14T08:47:42.949Z,3.90
2023-02-14T08:48:43.188Z,3.40
2023-02-14T08:49:42.922Z,3.60
2023-02-14T08:50:43.009Z,3.90
2023-02-14T08:51:42.924Z,3.40
2023-02-14T08:52:42.891Z,3.60
2023-02-14T08:53:42.962Z,3.90
2023-02-14T08:54:42.877Z,4.20
2023-02-14T08:55:42.890Z,4.10
2023-02-14T08:56:43.285Z,4.00
2023-02-14T08:57:42.886Z,3.20
2023-02-14T08:58:42.846Z,4.00
2023-02-14T08:59:42.826Z,3.90
2023-02-14T09:00:42.908Z,4.10
2023-02-14T09:01:42.808Z,4.50
2023-02-14T09:02:42.843Z,3.50
2023-02-14T09:03:42.875Z,4.30
2023-02-14T09:04:42.782Z,4.10
2023-02-14T09:05:42.775Z,3.80
2023-02-14T09:06:42.752Z,4.00
2023-02-14T09:07:42.767Z,4.50
2023-02-14T09:08:43.137Z,4.00
2023-02-14T09:09:42.753Z,3.30
2023-02-14T09:10:42.714Z,3.90
2023-02-14T09:11:42.735Z,3.70
2023-02-14T09:12:42.679Z,3.20
2023-02-14T09:13:42.712Z,3.90
2023-02-14T09:14:42.713Z,3.40
2023-02-14T09:15:42.957Z,4.40
2023-02-14T09:16:42.779Z,3.80
2023-02-14T09:17:42.627Z,4.20
2023-02-14T09:18:42.641Z,4.20
2023-02-14T09:19:42.668Z,4.30
2023-02-14T09:20:42.667Z,3.70
2023-02-14T09:21:42.598Z,3.50
2023-02-14T09:22:42.921Z,3.70
2023-02-14T09:23:42.571Z,3.60
2023-02-14T09:24:42.559Z,3.70
2023-02-14T09:25:43.152Z,3.60
2023-02-14T09:26:42.571Z,3.10
2023-02-14T09:27:42.529Z,3.60
2023-02-14T09:28:42.526Z,3.30
2023-02-14T09:29:42.810Z,4.20
2023-02-14T09:30:42.509Z,3.20
2023-02-14T09:31:42.603Z,3.40
2023-02-14T09:32:42.511Z,3.80
2023-02-14T09:33:42.471Z,3.60
2023-02-14T09:34:42.468Z,3.50
2023-02-14T09:35:42.471Z,3.80
2023-02-14T09:36:42.787Z,3.90
2023-02-14T09:37:42.431Z,3.10
2023-02-14T09:38:42.482Z,4.30
2023-02-14T09:39:42.398Z,3.40
2023-02-14T09:40:42.384Z,3.40
2023-02-14T09:41:42.492Z,3.60
2023-02-14T09:42:42.415Z,3.50
2023-02-14T09:43:42.655Z,3.30
2023-02-14T09:44:42.453Z,3.50
2023-02-14T09:45:42.488Z,3.40
2023-02-14T09:46:42.356Z,3.90
2023-02-14T09:47:42.298Z,4.50
2023-02-14T09:48:42.359Z,3.40
2023-02-14T09:49:42.496Z,3.30
2023-02-14T09:50:42.668Z,4.10
2023-02-14T09:51:42.259Z,4.40
2023-02-14T09:52:42.249Z,3.10
2023-02-14T09:53:42.263Z,3.50
2023-02-14T09:54:42.236Z,3.70
2023-02-14T09:55:42.254Z,4.60
2023-02-14T09:56:50.631Z,3.50
2023-02-14T09:57:42.233Z,3.90
2023-02-14T09:58:42.180Z,3.70
2023-02-14T09:59:42.220Z,3.60
2023-02-14T10:00:42.245Z,3.60
2023-02-14T10:01:42.157Z,3.40
2023-02-14T10:02:42.194Z,4.10
2023-02-14T10:03:42.145Z,3.70
2023-02-14T10:04:42.133Z,3.40
2023-02-14T10:05:42.142Z,3.90
2023-02-14T10:06:42.100Z,3.60
2023-02-14T10:07:42.099Z,3.30
2023-02-14T10:08:42.121Z,3.00
2023-02-14T10:09:42.413Z,3.50
2023-02-14T10:10:42.072Z,3.40
2023-02-14T10:11:42.063Z,3.50
2023-02-14T10:12:42.047Z,3.80
2023-02-14T10:13:42.056Z,3.00
2023-02-14T10:14:42.047Z,3.70
2023-02-14T10:15:42.008Z,3.00
2023-02-14T10:16:42.307Z,2.80
2023-02-14T10:17:42.014Z,2.60
2023-02-14T10:18:41.993Z,2.50
2023-02-14T10:19:42.002Z,2.40
2023-02-14T10:20:42.032Z,3.00
2023-02-14T10:21:41.974Z,3.20
2023-02-14T10:22:41.940Z,3.10
2023-02-14T10:23:42.217Z,3.10
2023-02-14T10:24:41.950Z,3.40
2023-02-14T10:25:41.919Z,3.40
2023-02-14T10:26:41.984Z,2.90
2023-02-14T10:27:41.885Z,3.20
2023-02-14T10:28:41.882Z,3.20
2023-02-14T10:29:41.889Z,3.40
2023-02-14T10:30:42.324Z,2.90
2023-02-14T10:31:42.063Z,2.80
2023-02-14T10:32:41.861Z,2.80
2023-02-14T10:33:41.832Z,2.80
2023-02-14T10:34:41.835Z,3.20
2023-02-14T10:35:41.808Z,3.60
2023-02-14T10:36:41.790Z,2.80
2023-02-14T10:37:42.056Z,3.80
2023-02-14T10:38:41.836Z,3.40
2023-02-14T10:39:41.765Z,3.00
2023-02-14T10:40:41.778Z,3.50
2023-02-14T10:41:41.760Z,3.00
2023-02-14T10:42:41.723Z,3.00
2023-02-14T10:43:41.736Z,3.00
2023-02-14T10:44:42.079Z,2.90
2023-02-14T10:45:41.872Z,3.10
2023-02-14T10:46:41.712Z,3.20
2023-02-14T10:47:41.680Z,2.90
2023-02-14T10:48:41.663Z,3.00
2023-02-14T10:49:41.677Z,2.70
2023-02-14T10:50:41.684Z,2.90
2023-02-14T10:51:41.644Z,2.80
2023-02-14T10:52:41.623Z,3.50
2023-02-14T10:53:41.635Z,3.00
2023-02-14T10:54:41.617Z,3.10
2023-02-14T10:55:41.593Z,3.00
2023-02-14T10:56:41.898Z,2.60
2023-02-14T10:57:42.213Z,2.50
2023-02-14T10:58:41.590Z,2.30
2023-02-14T10:59:41.561Z,3.00
2023-02-14T11:00:41.561Z,3.60
2023-02-14T11:01:41.638Z,2.80
2023-02-14T11:02:41.654Z,2.40
2023-02-14T11:03:43.924Z,2.50
2023-02-14T11:04:41.524Z,2.80
2023-02-14T11:05:41.529Z,2.80
2023-02-14T11:06:41.481Z,2.60
2023-02-14T11:07:41.517Z,3.20
2023-02-14T11:08:41.772Z,2.50
2023-02-14T11:09:41.450Z,3.00
2023-02-14T11:10:41.458Z,2.30
2023-02-14T11:11:41.437Z,3.10
2023-02-14T11:12:41.419Z,2.40
2023-02-14T11:13:41.441Z,2.70
2023-02-14T11:14:41.442Z,2.10
2023-02-14T11:15:41.403Z,2.60
2023-02-14T11:16:41.374Z,2.20
2023-02-14T11:17:41.389Z,2.90
2023-02-14T11:18:41.358Z,2.80
2023-02-14T11:19:41.352Z,2.80
2023-02-14T11:20:41.379Z,2.40
2023-02-14T11:21:41.663Z,2.70
2023-02-14T11:22:41.345Z,2.40
2023-02-14T11:23:41.347Z,3.10
2023-02-14T11:24:41.295Z,2.70
2023-02-14T11:25:41.299Z,2.40
2023-02-14T11:26:41.329Z,2.90
2023-02-14T11:27:41.284Z,3.00
2023-02-14T11:28:42.124Z,2.30
2023-02-14T11:29:41.309Z,2.90
2023-02-14T11:30:41.453Z,2.40
2023-02-14T11:31:41.344Z,2.50
2023-02-14T11:32:41.284Z,2.70
2023-02-14T11:33:41.201Z,3.20
2023-02-14T11:34:41.203Z,3.00
2023-02-14T11:35:41.475Z,2.50
2023-02-14T11:36:41.155Z,2.60
2023-02-14T11:37:41.147Z,3.80
2023-02-14T11:38:41.209Z,2.70
2023-02-14T11:39:41.174Z,2.20
2023-02-14T11:40:41.124Z,2.30
2023-02-14T11:41:41.120Z,2.60
2023-02-14T11:42:41.413Z,2.40
2023-02-14T11:43:41.115Z,2.30
2023-02-14T11:44:41.172Z,2.80
2023-02-14T11:45:41.084Z,2.20
2023-02-14T11:46:52.245Z,2.70
2023-02-14T11:47:41.062Z,2.30
2023-02-14T11:48:41.029Z,2.50
2023-02-14T11:49:41.317Z,2.90
2023-02-14T11:50:41.094Z,1.90
2023-02-14T11:51:41.028Z,2.30
2023-02-14T11:52:41.005Z,2.40
2023-02-14T11:53:40.998Z,2.50
2023-02-14T11:54:40.990Z,2.60
2023-02-14T11:55:40.997Z,2.90
2023-02-14T11:56:41.012Z,2.60
2023-02-14T11:57:40.995Z,2.20
2023-02-14T11:58:40.951Z,2.30
2023-02-14T11:59:40.927Z,2.60
2023-02-14T12:00:40.933Z,2.80
2023-02-14T12:01:40.920Z,2.10
2023-02-14T12:02:41.255Z,2.10
2023-02-14T12:03:40.905Z,2.50
2023-02-14T12:04:46.240Z,2.70
2023-02-14T12:05:40.889Z,3.20
2023-02-14T12:06:40.863Z,2.60
2023-02-14T12:07:40.887Z,2.30
2023-02-14T12:08:40.877Z,2.50
2023-02-14T12:09:40.838Z,2.10
2023-02-14T12:10:40.881Z,2.20
2023-02-14T12:11:40.798Z,2.60
2023-02-14T12:12:40.826Z,2.90
2023-02-14T12:13:40.786Z,2.20
2023-02-14T12:14:40.841Z,2.50
2023-02-14T12:15:41.089Z,2.00
2023-02-14T12:16:40.840Z,2.20
2023-02-14T12:17:40.751Z,2.60
2023-02-14T12:18:40.846Z,2.60
2023-02-14T12:19:40.817Z,2.20
2023-02-14T12:20:40.809Z,3.30
2023-02-14T12:21:40.707Z,1.70
2023-02-14T12:22:40.689Z,2.20
2023-02-14T12:23:40.719Z,2.00
2023-02-14T12:24:40.655Z,2.50
2023-02-14T12:25:40.652Z,2.50
2023-02-14T12:26:40.692Z,2.10
2023-02-14T12:27:40.912Z,1.80
2023-02-14T12:28:40.632Z,2.30
2023-02-14T12:29:40.768Z,2.40
2023-02-14T12:30:40.605Z,2.30
2023-02-14T12:31:40.855Z,2.40
2023-02-14T12:32:40.601Z,2.20
2023-02-14T12:33:40.569Z,2.50
2023-02-14T12:34:40.546Z,2.60
2023-02-14T12:35:40.544Z,1.80
2023-02-14T12:36:40.541Z,2.30
2023-02-14T12:37:40.549Z,1.90
2023-02-14T12:38:40.595Z,2.10
2023-02-14T12:39:40.814Z,2.00
2023-02-14T12:40:40.500Z,2.00
2023-02-14T12:41:40.489Z,2.00
2023-02-14T12:42:40.465Z,2.40
2023-02-14T12:43:40.454Z,1.80
2023-02-14T12:44:40.691Z,2.40
2023-02-14T12:45:40.494Z,2.10
2023-02-14T12:46:40.698Z,2.20
2023-02-14T12:47:40.480Z,2.10
2023-02-14T12:48:40.425Z,2.30
2023-02-14T12:49:40.411Z,1.70
2023-02-14T12:50:40.465Z,2.40
2023-02-14T12:51:40.391Z,2.20
2023-02-14T12:52:40.357Z,2.50
2023-02-14T12:53:40.739Z,2.00
2023-02-14T12:54:40.352Z,1.80
2023-02-14T12:55:40.419Z,2.20
2023-02-14T12:56:40.464Z,2.40
2023-02-14T12:57:40.342Z,1.90
2023-02-14T12:58:40.346Z,2.00
2023-02-14T12:59:40.330Z,1.80
2023-02-14T13:00:40.565Z,1.90
2023-02-14T13:01:40.411Z,2.20
2023-02-14T13:02:40.315Z,2.10
2023-02-14T13:03:40.361Z,1.60
2023-02-14T13:04:41.080Z,2.20
2023-02-14T13:05:40.288Z,1.80
2023-02-14T13:06:40.263Z,2.10
2023-02-14T13:07:40.531Z,1.90
2023-02-14T13:08:40.225Z,2.30
2023-02-14T13:09:40.321Z,2.30
2023-02-14T13:10:40.204Z,2.80
2023-02-14T13:11:40.211Z,2.10
2023-02-14T13:12:40.205Z,2.10
2023-02-14T13:13:40.195Z,2.80
2023-02-14T13:14:40.251Z,2.10
2023-02-14T13:15:40.119Z,2.50
2023-02-14T13:16:40.276Z,2.30
2023-02-14T13:17:40.241Z,1.90
2023-02-14T13:18:40.213Z,2.10
2023-02-14T13:19:40.086Z,2.20